sensor_id;sensor_type;location;lat;lon;timestamp;pressure;altitude;pressure_sealevel;temperature;humidity
76808;BME280;65758;45.458;11.062;2023-08-07T00:02:02;100341.17;;;20.00;53.81
76808;BME280;65758;45.458;11.062;2023-08-07T00:04:29;100344.72;;;19.92;53.90
76808;BME280;65758;45.458;11.062;2023-08-07T00:06:56;100339.19;;;19.83;54.10
76808;BME280;65758;45.458;11.062;2023-08-07T00:09:23;100338.04;;;19.73;54.14
76808;BME280;65758;45.458;11.062;2023-08-07T00:11:50;100338.37;;;19.69;54.29
76808;BME280;65758;45.458;11.062;2023-08-07T00:14:17;100336.92;;;19.69;54.48
76808;BME280;65758;45.458;11.062;2023-08-07T00:16:44;100334.95;;;19.67;54.39
76808;BME280;65758;45.458;11.062;2023-08-07T00:19:11;100334.56;;;19.62;54.42
76808;BME280;65758;45.458;11.062;2023-08-07T00:21:38;100335.44;;;19.59;54.21
76808;BME280;65758;45.458;11.062;2023-08-07T00:24:05;100335.44;;;19.55;54.15
76808;BME280;65758;45.458;11.062;2023-08-07T00:26:32;100342.62;;;19.53;54.14
76808;BME280;65758;45.458;11.062;2023-08-07T00:28:59;100345.88;;;19.54;54.23
76808;BME280;65758;45.458;11.062;2023-08-07T00:31:26;100354.34;;;19.56;54.13
76808;BME280;65758;45.458;11.062;2023-08-07T00:33:59;100358.56;;;19.56;54.23
76808;BME280;65758;45.458;11.062;2023-08-07T00:36:27;100360.88;;;19.53;53.87
76808;BME280;65758;45.458;11.062;2023-08-07T00:38:55;100362.48;;;19.49;53.82
76808;BME280;65758;45.458;11.062;2023-08-07T00:41:22;100366.19;;;19.46;53.92
76808;BME280;65758;45.458;11.062;2023-08-07T00:43:49;100361.08;;;19.45;53.87
76808;BME280;65758;45.458;11.062;2023-08-07T00:46:16;100364.38;;;19.41;53.91
76808;BME280;65758;45.458;11.062;2023-08-07T00:48:44;100364.41;;;19.38;53.95
76808;BME280;65758;45.458;11.062;2023-08-07T00:51:11;100364.80;;;19.32;54.04
76808;BME280;65758;45.458;11.062;2023-08-07T00:53:38;100365.38;;;19.24;54.10
76808;BME280;65758;45.458;11.062;2023-08-07T00:56:07;100370.11;;;19.17;54.29
76808;BME280;65758;45.458;11.062;2023-08-07T00:58:34;100367.80;;;19.14;54.33
76808;BME280;65758;45.458;11.062;2023-08-07T01:01:02;100367.59;;;19.15;54.46
76808;BME280;65758;45.458;11.062;2023-08-07T01:03:29;100368.37;;;19.16;54.53
76808;BME280;65758;45.458;11.062;2023-08-07T01:05:56;100365.52;;;19.16;54.57
76808;BME280;65758;45.458;11.062;2023-08-07T01:08:27;100359.39;;;19.15;54.40
76808;BME280;65758;45.458;11.062;2023-08-07T01:11:03;100357.61;;;19.13;54.33
76808;BME280;65758;45.458;11.062;2023-08-07T01:14:02;100352.08;;;19.13;54.40
76808;BME280;65758;45.458;11.062;2023-08-07T01:16:55;100349.57;;;19.14;54.29
76808;BME280;65758;45.458;11.062;2023-08-07T01:19:27;100350.36;;;19.12;54.07
76808;BME280;65758;45.458;11.062;2023-08-07T01:22:13;100342.23;;;19.09;54.09
76808;BME280;65758;45.458;11.062;2023-08-07T01:24:43;100346.54;;;19.06;54.01
76808;BME280;65758;45.458;11.062;2023-08-07T01:27:35;100342.73;;;19.02;54.05
76808;BME280;65758;45.458;11.062;2023-08-07T01:33:22;100347.80;;;18.95;53.82
76808;BME280;65758;45.458;11.062;2023-08-07T01:35:53;100350.58;;;18.89;53.90
76808;BME280;65758;45.458;11.062;2023-08-07T01:38:25;100354.81;;;18.86;53.77
76808;BME280;65758;45.458;11.062;2023-08-07T01:40:54;100353.38;;;18.86;53.88
76808;BME280;65758;45.458;11.062;2023-08-07T01:43:23;100357.85;;;18.89;53.82
76808;BME280;65758;45.458;11.062;2023-08-07T01:45:51;100358.83;;;18.91;53.79
76808;BME280;65758;45.458;11.062;2023-08-07T01:48:18;100358.05;;;18.85;53.89
76808;BME280;65758;45.458;11.062;2023-08-07T01:50:45;100360.79;;;18.70;54.25
76808;BME280;65758;45.458;11.062;2023-08-07T01:53:12;100359.94;;;18.64;54.51
76808;BME280;65758;45.458;11.062;2023-08-07T01:55:39;100361.83;;;18.65;54.44
76808;BME280;65758;45.458;11.062;2023-08-07T01:58:06;100361.55;;;18.66;54.48
76808;BME280;65758;45.458;11.062;2023-08-07T02:00:33;100355.34;;;18.66;54.68
76808;BME280;65758;45.458;11.062;2023-08-07T02:03:00;100356.55;;;18.64;54.64
76808;BME280;65758;45.458;11.062;2023-08-07T02:05:27;100359.84;;;18.56;54.82
76808;BME280;65758;45.458;11.062;2023-08-07T02:07:54;100359.83;;;18.46;54.90
76808;BME280;65758;45.458;11.062;2023-08-07T02:10:23;100356.70;;;18.34;55.16
76808;BME280;65758;45.458;11.062;2023-08-07T02:12:50;100359.27;;;18.30;55.46
76808;BME280;65758;45.458;11.062;2023-08-07T02:15:17;100369.21;;;18.26;55.67
76808;BME280;65758;45.458;11.062;2023-08-07T02:17:49;100373.13;;;18.22;55.86
76808;BME280;65758;45.458;11.062;2023-08-07T02:20:16;100379.43;;;18.21;55.98
76808;BME280;65758;45.458;11.062;2023-08-07T02:22:43;100384.47;;;18.21;56.08
76808;BME280;65758;45.458;11.062;2023-08-07T02:25:10;100382.29;;;18.25;55.85
76808;BME280;65758;45.458;11.062;2023-08-07T02:27:37;100383.05;;;18.30;55.68
76808;BME280;65758;45.458;11.062;2023-08-07T02:30:05;100378.03;;;18.34;55.59
76808;BME280;65758;45.458;11.062;2023-08-07T02:32:33;100385.48;;;18.37;55.35
76808;BME280;65758;45.458;11.062;2023-08-07T02:34:59;100382.52;;;18.40;55.49
76808;BME280;65758;45.458;11.062;2023-08-07T02:37:26;100379.48;;;18.39;55.68
76808;BME280;65758;45.458;11.062;2023-08-07T02:39:53;100388.04;;;18.38;55.63
76808;BME280;65758;45.458;11.062;2023-08-07T02:42:20;100389.88;;;18.36;55.83
76808;BME280;65758;45.458;11.062;2023-08-07T02:44:47;100386.34;;;18.35;56.10
76808;BME280;65758;45.458;11.062;2023-08-07T02:47:14;100388.50;;;18.34;56.23
76808;BME280;65758;45.458;11.062;2023-08-07T02:49:41;100385.34;;;18.33;56.01
76808;BME280;65758;45.458;11.062;2023-08-07T02:52:07;100383.63;;;18.34;55.73
76808;BME280;65758;45.458;11.062;2023-08-07T02:54:34;100378.36;;;18.32;55.67
76808;BME280;65758;45.458;11.062;2023-08-07T02:57:01;100384.20;;;18.32;55.58
76808;BME280;65758;45.458;11.062;2023-08-07T02:59:28;100389.74;;;18.30;55.60
76808;BME280;65758;45.458;11.062;2023-08-07T03:01:56;100383.85;;;18.25;55.67
76808;BME280;65758;45.458;11.062;2023-08-07T03:04:23;100375.89;;;18.12;56.13
76808;BME280;65758;45.458;11.062;2023-08-07T03:06:49;100374.08;;;18.00;56.27
76808;BME280;65758;45.458;11.062;2023-08-07T03:09:16;100382.19;;;17.94;56.26
76808;BME280;65758;45.458;11.062;2023-08-07T03:11:43;100383.14;;;17.92;56.34
76808;BME280;65758;45.458;11.062;2023-08-07T03:14:10;100376.39;;;17.93;56.23
76808;BME280;65758;45.458;11.062;2023-08-07T03:16:37;100369.52;;;17.96;56.18
76808;BME280;65758;45.458;11.062;2023-08-07T03:19:04;100371.26;;;17.98;55.95
76808;BME280;65758;45.458;11.062;2023-08-07T03:21:31;100367.23;;;17.97;55.56
76808;BME280;65758;45.458;11.062;2023-08-07T03:23:58;100373.44;;;17.96;55.64
76808;BME280;65758;45.458;11.062;2023-08-07T03:26:25;100379.09;;;17.94;55.58
76808;BME280;65758;45.458;11.062;2023-08-07T03:28:52;100373.13;;;17.91;55.49
76808;BME280;65758;45.458;11.062;2023-08-07T03:31:19;100367.30;;;17.81;55.09
76808;BME280;65758;45.458;11.062;2023-08-07T03:33:46;100369.05;;;17.73;55.15
76808;BME280;65758;45.458;11.062;2023-08-07T03:36:14;100368.13;;;17.71;55.08
76808;BME280;65758;45.458;11.062;2023-08-07T03:38:41;100375.69;;;17.74;55.18
76808;BME280;65758;45.458;11.062;2023-08-07T03:41:09;100378.78;;;17.77;55.03
76808;BME280;65758;45.458;11.062;2023-08-07T03:43:37;100377.54;;;17.80;55.23
76808;BME280;65758;45.458;11.062;2023-08-07T03:46:04;100381.38;;;17.82;55.33
76808;BME280;65758;45.458;11.062;2023-08-07T03:48:31;100383.73;;;17.80;55.23
76808;BME280;65758;45.458;11.062;2023-08-07T03:51:07;100389.45;;;17.79;55.42
76808;BME280;65758;45.458;11.062;2023-08-07T03:53:44;100393.39;;;17.77;55.36
76808;BME280;65758;45.458;11.062;2023-08-07T03:56:11;100392.55;;;17.76;55.65
76808;BME280;65758;45.458;11.062;2023-08-07T03:58:38;100396.44;;;17.74;55.82
76808;BME280;65758;45.458;11.062;2023-08-07T04:01:05;100394.36;;;17.68;56.30
76808;BME280;65758;45.458;11.062;2023-08-07T04:03:32;100395.35;;;17.67;56.17
76808;BME280;65758;45.458;11.062;2023-08-07T04:05:59;100401.77;;;17.66;56.08
76808;BME280;65758;45.458;11.062;2023-08-07T04:08:32;100404.08;;;17.66;56.10
76808;BME280;65758;45.458;11.062;2023-08-07T04:11:00;100408.44;;;17.65;56.24
76808;BME280;65758;45.458;11.062;2023-08-07T04:13:28;100409.77;;;17.65;56.25
76808;BME280;65758;45.458;11.062;2023-08-07T04:15:55;100407.39;;;17.65;56.48
76808;BME280;65758;45.458;11.062;2023-08-07T04:18:22;100408.33;;;17.62;56.70
76808;BME280;65758;45.458;11.062;2023-08-07T04:20:50;100406.29;;;17.59;56.75
76808;BME280;65758;45.458;11.062;2023-08-07T04:23:19;100414.08;;;17.55;57.08
76808;BME280;65758;45.458;11.062;2023-08-07T04:25:52;100415.85;;;17.50;57.23
76808;BME280;65758;45.458;11.062;2023-08-07T04:28:20;100413.48;;;17.46;57.16
76808;BME280;65758;45.458;11.062;2023-08-07T04:30:51;100412.61;;;17.44;57.22
76808;BME280;65758;45.458;11.062;2023-08-07T04:33:21;100409.13;;;17.43;57.29
76808;BME280;65758;45.458;11.062;2023-08-07T04:35:48;100408.86;;;17.42;57.30
76808;BME280;65758;45.458;11.062;2023-08-07T04:38:16;100414.66;;;17.41;57.37
76808;BME280;65758;45.458;11.062;2023-08-07T04:40:47;100415.65;;;17.42;57.38
76808;BME280;65758;45.458;11.062;2023-08-07T04:43:15;100413.22;;;17.41;57.27
76808;BME280;65758;45.458;11.062;2023-08-07T04:45:43;100414.11;;;17.40;57.40
76808;BME280;65758;45.458;11.062;2023-08-07T04:48:13;100418.10;;;17.37;57.41
76808;BME280;65758;45.458;11.062;2023-08-07T04:50:40;100411.63;;;17.33;57.32
76808;BME280;65758;45.458;11.062;2023-08-07T04:53:07;100420.27;;;17.29;57.19
76808;BME280;65758;45.458;11.062;2023-08-07T04:55:34;100420.44;;;17.26;57.32
76808;BME280;65758;45.458;11.062;2023-08-07T04:58:01;100426.64;;;17.26;57.50
76808;BME280;65758;45.458;11.062;2023-08-07T05:00:28;100427.52;;;17.24;58.91
76808;BME280;65758;45.458;11.062;2023-08-07T05:02:55;100428.55;;;17.35;59.74
76808;BME280;65758;45.458;11.062;2023-08-07T05:05:22;100436.72;;;17.46;59.75
76808;BME280;65758;45.458;11.062;2023-08-07T05:07:50;100436.21;;;17.58;58.89
76808;BME280;65758;45.458;11.062;2023-08-07T05:10:17;100437.20;;;17.68;58.39
76808;BME280;65758;45.458;11.062;2023-08-07T05:12:44;100442.66;;;17.79;57.89
76808;BME280;65758;45.458;11.062;2023-08-07T05:15:11;100442.85;;;17.87;57.97
76808;BME280;65758;45.458;11.062;2023-08-07T05:17:38;100438.83;;;17.95;57.67
76808;BME280;65758;45.458;11.062;2023-08-07T05:20:05;100436.47;;;18.05;57.58
76808;BME280;65758;45.458;11.062;2023-08-07T05:22:32;100436.20;;;18.15;56.99
76808;BME280;65758;45.458;11.062;2023-08-07T05:25:18;100440.52;;;18.24;56.85
76808;BME280;65758;45.458;11.062;2023-08-07T05:27:45;100440.29;;;18.29;56.58
76808;BME280;65758;45.458;11.062;2023-08-07T05:30:14;100444.74;;;18.35;56.00
76808;BME280;65758;45.458;11.062;2023-08-07T05:32:41;100449.34;;;18.43;55.47
76808;BME280;65758;45.458;11.062;2023-08-07T05:35:08;100451.48;;;18.50;54.73
76808;BME280;65758;45.458;11.062;2023-08-07T05:37:35;100454.90;;;18.56;54.08
76808;BME280;65758;45.458;11.062;2023-08-07T05:40:02;100452.65;;;18.61;53.85
76808;BME280;65758;45.458;11.062;2023-08-07T05:42:30;100456.48;;;18.68;54.25
76808;BME280;65758;45.458;11.062;2023-08-07T05:44:58;100460.76;;;18.76;55.53
76808;BME280;65758;45.458;11.062;2023-08-07T05:47:25;100462.38;;;18.83;55.22
76808;BME280;65758;45.458;11.062;2023-08-07T05:49:52;100464.05;;;18.89;54.92
76808;BME280;65758;45.458;11.062;2023-08-07T05:52:19;100469.37;;;18.97;54.70
76808;BME280;65758;45.458;11.062;2023-08-07T05:54:45;100476.06;;;19.13;54.64
76808;BME280;65758;45.458;11.062;2023-08-07T05:57:12;100476.94;;;19.33;54.57
76808;BME280;65758;45.458;11.062;2023-08-07T05:59:39;100469.81;;;19.52;54.76
76808;BME280;65758;45.458;11.062;2023-08-07T06:02:06;100472.79;;;19.70;54.81
76808;BME280;65758;45.458;11.062;2023-08-07T06:04:33;100470.52;;;19.85;55.24
76808;BME280;65758;45.458;11.062;2023-08-07T06:07:00;100468.73;;;20.00;55.32
76808;BME280;65758;45.458;11.062;2023-08-07T06:09:27;100474.00;;;20.14;55.69
76808;BME280;65758;45.458;11.062;2023-08-07T06:11:54;100474.77;;;20.24;55.05
76808;BME280;65758;45.458;11.062;2023-08-07T06:14:22;100477.56;;;20.30;55.46
76808;BME280;65758;45.458;11.062;2023-08-07T06:16:49;100480.52;;;20.36;55.29
76808;BME280;65758;45.458;11.062;2023-08-07T06:19:16;100482.86;;;20.41;55.55
76808;BME280;65758;45.458;11.062;2023-08-07T06:21:57;100482.95;;;20.47;55.64
76808;BME280;65758;45.458;11.062;2023-08-07T06:24:25;100479.63;;;20.55;55.74
76808;BME280;65758;45.458;11.062;2023-08-07T06:26:52;100486.04;;;20.68;55.40
76808;BME280;65758;45.458;11.062;2023-08-07T06:29:19;100485.16;;;20.79;54.77
76808;BME280;65758;45.458;11.062;2023-08-07T06:31:46;100484.25;;;20.87;54.69
76808;BME280;65758;45.458;11.062;2023-08-07T06:34:13;100485.17;;;20.96;54.65
76808;BME280;65758;45.458;11.062;2023-08-07T06:36:40;100488.08;;;21.08;54.60
76808;BME280;65758;45.458;11.062;2023-08-07T06:39:07;100480.54;;;21.21;54.03
76808;BME280;65758;45.458;11.062;2023-08-07T06:41:33;100484.60;;;21.39;53.61
76808;BME280;65758;45.458;11.062;2023-08-07T06:44:00;100481.79;;;21.60;52.77
76808;BME280;65758;45.458;11.062;2023-08-07T06:46:27;100478.96;;;21.80;52.39
76808;BME280;65758;45.458;11.062;2023-08-07T06:48:55;100479.52;;;22.04;51.96
76808;BME280;65758;45.458;11.062;2023-08-07T06:51:22;100479.37;;;22.28;51.42
76808;BME280;65758;45.458;11.062;2023-08-07T06:53:48;100480.73;;;22.50;51.02
76808;BME280;65758;45.458;11.062;2023-08-07T06:56:15;100479.64;;;22.70;50.57
76808;BME280;65758;45.458;11.062;2023-08-07T06:58:42;100488.45;;;22.90;50.48
76808;BME280;65758;45.458;11.062;2023-08-07T07:01:09;100491.31;;;23.08;50.04
76808;BME280;65758;45.458;11.062;2023-08-07T07:03:36;100493.89;;;23.21;49.39
76808;BME280;65758;45.458;11.062;2023-08-07T07:06:03;100492.61;;;23.35;49.40
76808;BME280;65758;45.458;11.062;2023-08-07T07:08:30;100491.28;;;23.48;49.31
76808;BME280;65758;45.458;11.062;2023-08-07T07:10:56;100493.74;;;23.64;49.03
76808;BME280;65758;45.458;11.062;2023-08-07T07:13:24;100495.42;;;23.81;48.70
76808;BME280;65758;45.458;11.062;2023-08-07T07:15:55;100494.39;;;23.99;48.57
76808;BME280;65758;45.458;11.062;2023-08-07T07:18:22;100498.21;;;24.20;48.34
76808;BME280;65758;45.458;11.062;2023-08-07T07:20:57;100500.36;;;24.39;48.20
76808;BME280;65758;45.458;11.062;2023-08-07T07:23:24;100504.77;;;24.58;47.45
76808;BME280;65758;45.458;11.062;2023-08-07T07:25:51;100505.55;;;24.74;46.91
76808;BME280;65758;45.458;11.062;2023-08-07T07:28:18;100498.41;;;24.93;46.33
76808;BME280;65758;45.458;11.062;2023-08-07T07:30:45;100497.27;;;25.10;45.94
76808;BME280;65758;45.458;11.062;2023-08-07T07:33:12;100498.42;;;25.27;45.84
76808;BME280;65758;45.458;11.062;2023-08-07T07:35:40;100500.46;;;25.44;46.00
76808;BME280;65758;45.458;11.062;2023-08-07T07:38:07;100503.34;;;25.59;45.10
76808;BME280;65758;45.458;11.062;2023-08-07T07:40:34;100502.03;;;25.73;45.37
76808;BME280;65758;45.458;11.062;2023-08-07T07:43:02;100506.34;;;25.87;44.64
76808;BME280;65758;45.458;11.062;2023-08-07T07:45:29;100511.23;;;25.98;44.11
76808;BME280;65758;45.458;11.062;2023-08-07T07:47:56;100511.60;;;26.10;43.74
76808;BME280;65758;45.458;11.062;2023-08-07T07:50:23;100516.36;;;26.24;44.05
76808;BME280;65758;45.458;11.062;2023-08-07T07:52:50;100516.38;;;26.34;43.83
76808;BME280;65758;45.458;11.062;2023-08-07T07:55:17;100516.63;;;26.43;43.17
76808;BME280;65758;45.458;11.062;2023-08-07T07:57:44;100519.20;;;26.55;42.77
76808;BME280;65758;45.458;11.062;2023-08-07T08:00:12;100518.51;;;26.66;42.00
76808;BME280;65758;45.458;11.062;2023-08-07T08:02:40;100520.82;;;26.76;42.26
76808;BME280;65758;45.458;11.062;2023-08-07T08:05:09;100521.06;;;26.80;41.92
76808;BME280;65758;45.458;11.062;2023-08-07T08:07:39;100523.23;;;26.87;41.85
76808;BME280;65758;45.458;11.062;2023-08-07T08:10:07;100522.02;;;26.97;41.50
76808;BME280;65758;45.458;11.062;2023-08-07T08:12:35;100517.85;;;27.05;41.27
76808;BME280;65758;45.458;11.062;2023-08-07T08:15:03;100518.81;;;27.11;41.00
76808;BME280;65758;45.458;11.062;2023-08-07T08:17:30;100520.42;;;27.22;40.57
76808;BME280;65758;45.458;11.062;2023-08-07T08:19:58;100515.33;;;27.32;40.77
76808;BME280;65758;45.458;11.062;2023-08-07T08:22:25;100515.08;;;27.42;39.69
76808;BME280;65758;45.458;11.062;2023-08-07T08:24:52;100517.23;;;27.42;39.64
76808;BME280;65758;45.458;11.062;2023-08-07T08:27:19;100523.61;;;27.38;38.94
76808;BME280;65758;45.458;11.062;2023-08-07T08:29:46;100523.04;;;27.36;38.67
76808;BME280;65758;45.458;11.062;2023-08-07T08:32:13;100524.61;;;27.45;39.34
76808;BME280;65758;45.458;11.062;2023-08-07T08:34:40;100522.05;;;27.56;38.76
76808;BME280;65758;45.458;11.062;2023-08-07T08:37:07;100525.02;;;27.69;39.31
76808;BME280;65758;45.458;11.062;2023-08-07T08:39:34;100525.89;;;27.87;38.19
76808;BME280;65758;45.458;11.062;2023-08-07T08:42:01;100528.49;;;27.99;38.06
76808;BME280;65758;45.458;11.062;2023-08-07T08:44:29;100530.67;;;28.07;37.61
76808;BME280;65758;45.458;11.062;2023-08-07T08:46:59;100536.46;;;28.17;37.81
76808;BME280;65758;45.458;11.062;2023-08-07T08:49:37;100537.09;;;28.30;37.51
76808;BME280;65758;45.458;11.062;2023-08-07T08:52:08;100537.82;;;28.45;36.17
76808;BME280;65758;45.458;11.062;2023-08-07T08:54:36;100538.77;;;28.60;36.03
76808;BME280;65758;45.458;11.062;2023-08-07T08:57:03;100539.18;;;28.73;35.48
76808;BME280;65758;45.458;11.062;2023-08-07T08:59:30;100543.83;;;28.77;33.84
76808;BME280;65758;45.458;11.062;2023-08-07T09:01:58;100545.14;;;28.85;33.47
76808;BME280;65758;45.458;11.062;2023-08-07T09:04:25;100546.71;;;28.97;33.55
76808;BME280;65758;45.458;11.062;2023-08-07T09:06:52;100544.79;;;29.08;32.48
76808;BME280;65758;45.458;11.062;2023-08-07T09:09:20;100541.66;;;29.19;33.33
76808;BME280;65758;45.458;11.062;2023-08-07T09:11:48;100545.39;;;29.27;31.75
76808;BME280;65758;45.458;11.062;2023-08-07T09:14:17;100548.66;;;29.30;32.53
76808;BME280;65758;45.458;11.062;2023-08-07T09:16:48;100546.55;;;29.41;32.12
76808;BME280;65758;45.458;11.062;2023-08-07T09:19:15;100539.23;;;29.52;32.61
76808;BME280;65758;45.458;11.062;2023-08-07T09:21:42;100538.09;;;29.64;31.40
76808;BME280;65758;45.458;11.062;2023-08-07T09:24:09;100537.24;;;29.73;31.52
76808;BME280;65758;45.458;11.062;2023-08-07T09:26:38;100542.48;;;29.87;32.67
76808;BME280;65758;45.458;11.062;2023-08-07T09:29:10;100541.46;;;29.99;30.75
76808;BME280;65758;45.458;11.062;2023-08-07T09:31:37;100542.83;;;30.02;29.88
76808;BME280;65758;45.458;11.062;2023-08-07T09:34:04;100546.33;;;30.03;30.15
76808;BME280;65758;45.458;11.062;2023-08-07T09:36:34;100546.59;;;30.04;29.94
76808;BME280;65758;45.458;11.062;2023-08-07T09:39:02;100549.10;;;30.07;30.05
76808;BME280;65758;45.458;11.062;2023-08-07T09:41:30;100550.20;;;30.15;29.92
76808;BME280;65758;45.458;11.062;2023-08-07T09:43:57;100554.21;;;30.23;29.41
76808;BME280;65758;45.458;11.062;2023-08-07T09:46:25;100555.71;;;30.31;28.77
76808;BME280;65758;45.458;11.062;2023-08-07T09:48:57;100558.07;;;30.41;28.70
76808;BME280;65758;45.458;11.062;2023-08-07T09:51:25;100554.98;;;30.50;28.26
76808;BME280;65758;45.458;11.062;2023-08-07T09:53:52;100553.29;;;30.59;28.80
76808;BME280;65758;45.458;11.062;2023-08-07T09:56:19;100555.44;;;30.68;28.16
76808;BME280;65758;45.458;11.062;2023-08-07T09:58:48;100557.23;;;30.74;27.80
76808;BME280;65758;45.458;11.062;2023-08-07T10:01:16;100555.02;;;30.80;27.38
76808;BME280;65758;45.458;11.062;2023-08-07T10:03:44;100554.93;;;30.83;26.44
76808;BME280;65758;45.458;11.062;2023-08-07T10:06:11;100551.98;;;30.89;26.72
76808;BME280;65758;45.458;11.062;2023-08-07T10:08:39;100556.77;;;30.89;26.16
76808;BME280;65758;45.458;11.062;2023-08-07T10:11:08;100555.02;;;30.97;26.12
76808;BME280;65758;45.458;11.062;2023-08-07T10:13:37;100553.68;;;31.08;26.76
76808;BME280;65758;45.458;11.062;2023-08-07T10:16:06;100546.80;;;31.22;25.89
76808;BME280;65758;45.458;11.062;2023-08-07T10:18:34;100548.38;;;31.28;24.96
76808;BME280;65758;45.458;11.062;2023-08-07T10:21:03;100548.38;;;31.31;24.91
76808;BME280;65758;45.458;11.062;2023-08-07T10:23:34;100545.40;;;31.36;24.91
76808;BME280;65758;45.458;11.062;2023-08-07T10:26:03;100539.98;;;31.39;25.16
76808;BME280;65758;45.458;11.062;2023-08-07T10:28:33;100540.95;;;31.43;25.10
76808;BME280;65758;45.458;11.062;2023-08-07T10:31:01;100542.16;;;31.53;26.50
76808;BME280;65758;45.458;11.062;2023-08-07T10:33:28;100537.83;;;31.62;25.86
76808;BME280;65758;45.458;11.062;2023-08-07T10:35:57;100543.02;;;31.64;24.94
76808;BME280;65758;45.458;11.062;2023-08-07T10:38:25;100540.48;;;31.70;24.91
76808;BME280;65758;45.458;11.062;2023-08-07T10:41:13;100538.64;;;31.74;24.66
76808;BME280;65758;45.458;11.062;2023-08-07T10:43:41;100537.63;;;31.85;25.27
76808;BME280;65758;45.458;11.062;2023-08-07T10:46:11;100536.09;;;31.93;24.67
76808;BME280;65758;45.458;11.062;2023-08-07T10:51:08;100540.28;;;32.00;24.44
76808;BME280;65758;45.458;11.062;2023-08-07T10:53:37;100537.17;;;32.03;25.23
76808;BME280;65758;45.458;11.062;2023-08-07T10:56:08;100539.23;;;32.13;25.13
76808;BME280;65758;45.458;11.062;2023-08-07T10:58:40;100539.73;;;32.22;25.09
76808;BME280;65758;45.458;11.062;2023-08-07T11:04:15;100537.02;;;32.39;24.57
76808;BME280;65758;45.458;11.062;2023-08-07T11:06:43;100533.02;;;32.46;24.41
76808;BME280;65758;45.458;11.062;2023-08-07T11:09:13;100533.09;;;32.51;24.81
76808;BME280;65758;45.458;11.062;2023-08-07T11:11:45;100530.69;;;32.52;25.13
76808;BME280;65758;45.458;11.062;2023-08-07T11:14:15;100525.46;;;32.58;24.75
76808;BME280;65758;45.458;11.062;2023-08-07T11:16:42;100524.73;;;32.66;24.98
76808;BME280;65758;45.458;11.062;2023-08-07T11:19:12;100520.36;;;32.74;24.61
76808;BME280;65758;45.458;11.062;2023-08-07T11:21:40;100520.86;;;32.74;24.55
76808;BME280;65758;45.458;11.062;2023-08-07T11:24:07;100520.35;;;32.72;23.57
76808;BME280;65758;45.458;11.062;2023-08-07T11:26:34;100520.52;;;32.67;22.77
76808;BME280;65758;45.458;11.062;2023-08-07T11:29:01;100515.21;;;32.65;23.26
76808;BME280;65758;45.458;11.062;2023-08-07T11:31:28;100512.27;;;32.63;22.35
76808;BME280;65758;45.458;11.062;2023-08-07T11:33:56;100513.08;;;32.63;22.51
76808;BME280;65758;45.458;11.062;2023-08-07T11:36:24;100508.81;;;32.64;21.71
76808;BME280;65758;45.458;11.062;2023-08-07T11:38:52;100509.43;;;32.63;22.40
76808;BME280;65758;45.458;11.062;2023-08-07T11:41:18;100513.59;;;32.69;22.58
76808;BME280;65758;45.458;11.062;2023-08-07T11:43:46;100511.21;;;32.78;21.87
76808;BME280;65758;45.458;11.062;2023-08-07T11:46:15;100512.02;;;32.84;20.90
76808;BME280;65758;45.458;11.062;2023-08-07T11:48:43;100518.02;;;32.83;22.07
76808;BME280;65758;45.458;11.062;2023-08-07T11:51:11;100516.11;;;32.86;20.94
76808;BME280;65758;45.458;11.062;2023-08-07T11:53:40;100518.41;;;32.88;20.36
76808;BME280;65758;45.458;11.062;2023-08-07T11:56:09;100516.52;;;32.91;20.67
76808;BME280;65758;45.458;11.062;2023-08-07T11:58:42;100520.02;;;32.94;20.89
76808;BME280;65758;45.458;11.062;2023-08-07T12:01:10;100526.33;;;32.98;21.69
76808;BME280;65758;45.458;11.062;2023-08-07T12:03:41;100527.98;;;33.02;20.78
76808;BME280;65758;45.458;11.062;2023-08-07T12:06:09;100525.06;;;33.01;20.39
76808;BME280;65758;45.458;11.062;2023-08-07T12:08:40;100524.62;;;33.03;20.30
76808;BME280;65758;45.458;11.062;2023-08-07T12:11:09;100520.80;;;33.02;20.57
76808;BME280;65758;45.458;11.062;2023-08-07T12:13:41;100524.90;;;33.00;20.24
76808;BME280;65758;45.458;11.062;2023-08-07T12:16:09;100527.67;;;32.91;20.19
76808;BME280;65758;45.458;11.062;2023-08-07T12:18:37;100527.46;;;32.83;19.69
76808;BME280;65758;45.458;11.062;2023-08-07T12:21:07;100527.33;;;32.83;20.86
76808;BME280;65758;45.458;11.062;2023-08-07T12:23:34;100523.58;;;32.92;21.15
76808;BME280;65758;45.458;11.062;2023-08-07T12:26:03;100521.42;;;33.01;21.02
76808;BME280;65758;45.458;11.062;2023-08-07T12:28:35;100524.63;;;33.09;20.00
76808;BME280;65758;45.458;11.062;2023-08-07T12:31:02;100520.29;;;33.06;19.26
76808;BME280;65758;45.458;11.062;2023-08-07T12:33:30;100521.45;;;32.97;19.46
76808;BME280;65758;45.458;11.062;2023-08-07T12:35:58;100526.64;;;32.87;19.74
76808;BME280;65758;45.458;11.062;2023-08-07T12:38:25;100523.81;;;32.87;19.95
76808;BME280;65758;45.458;11.062;2023-08-07T12:40:53;100527.53;;;32.92;20.02
76808;BME280;65758;45.458;11.062;2023-08-07T12:43:20;100525.20;;;32.94;19.94
76808;BME280;65758;45.458;11.062;2023-08-07T12:45:47;100524.19;;;32.96;19.35
76808;BME280;65758;45.458;11.062;2023-08-07T12:48:17;100522.73;;;32.97;19.85
76808;BME280;65758;45.458;11.062;2023-08-07T12:50:45;100521.63;;;32.98;19.72
76808;BME280;65758;45.458;11.062;2023-08-07T12:53:12;100517.45;;;33.01;19.87
76808;BME280;65758;45.458;11.062;2023-08-07T12:55:39;100518.52;;;33.02;19.53